sensor_id;sensor_type;location;lat;lon;timestamp;P1;durP1;ratioP1;P2;durP2;ratioP2
54143;SDS011;40050;47.324;18.792;2023-07-31T00:01:59;5.95;;;4.97;;
54143;SDS011;40050;47.324;18.792;2023-07-31T00:04:00;5.32;;;4.97;;
54143;SDS011;40050;47.324;18.792;2023-07-31T00:06:01;5.32;;;4.97;;
54143;SDS011;40050;47.324;18.792;2023-07-31T00:08:14;6.67;;;5.27;;
54143;SDS011;40050;47.324;18.792;2023-07-31T00:10:15;7.02;;;5.07;;
54143;SDS011;40050;47.324;18.792;2023-07-31T00:12:16;6.93;;;5.17;;
54143;SDS011;40050;47.324;18.792;2023-07-31T00:14:17;6.03;;;5.07;;
54143;SDS011;40050;47.324;18.792;2023-07-31T00:16:18;6.20;;;4.97;;
54143;SDS011;40050;47.324;18.792;2023-07-31T00:18:19;8.18;;;5.26;;
54143;SDS011;40050;47.324;18.792;2023-07-31T00:20:20;8.72;;;5.07;;
54143;SDS011;40050;47.324;18.792;2023-07-31T00:22:21;6.30;;;4.87;;
54143;SDS011;40050;47.324;18.792;2023-07-31T00:24:21;6.38;;;4.77;;
54143;SDS011;40050;47.324;18.792;2023-07-31T00:26:22;7.19;;;4.77;;
54143;SDS011;40050;47.324;18.792;2023-07-31T00:28:23;5.93;;;4.68;;
54143;SDS011;40050;47.324;18.792;2023-07-31T00:30:24;7.01;;;4.78;;
54143;SDS011;40050;47.324;18.792;2023-07-31T00:32:25;5.58;;;4.87;;
54143;SDS011;40050;47.324;18.792;2023-07-31T00:34:26;6.57;;;5.07;;
54143;SDS011;40050;47.324;18.792;2023-07-31T00:36:27;6.75;;;4.78;;
54143;SDS011;40050;47.324;18.792;2023-07-31T00:38:29;7.03;;;5.17;;
54143;SDS011;40050;47.324;18.792;2023-07-31T00:40:34;8.02;;;4.97;;
54143;SDS011;40050;47.324;18.792;2023-07-31T00:42:31;5.85;;;4.97;;
54143;SDS011;40050;47.324;18.792;2023-07-31T00:44:32;6.93;;;5.17;;
54143;SDS011;40050;47.324;18.792;2023-07-31T00:46:33;5.83;;;4.87;;
54143;SDS011;40050;47.324;18.792;2023-07-31T00:48:34;7.45;;;5.06;;
54143;SDS011;40050;47.324;18.792;2023-07-31T00:50:35;6.55;;;4.87;;
54143;SDS011;40050;47.324;18.792;2023-07-31T00:52:36;8.06;;;5.74;;
54143;SDS011;40050;47.324;18.792;2023-07-31T00:54:37;7.35;;;5.16;;
54143;SDS011;40050;47.324;18.792;2023-07-31T00:56:38;5.55;;;5.06;;
54143;SDS011;40050;47.324;18.792;2023-07-31T00:58:39;6.63;;;5.06;;
54143;SDS011;40050;47.324;18.792;2023-07-31T01:00:41;6.64;;;4.87;;
54143;SDS011;40050;47.324;18.792;2023-07-31T01:02:42;7.36;;;5.16;;
54143;SDS011;40050;47.324;18.792;2023-07-31T01:04:43;6.65;;;4.97;;
54143;SDS011;40050;47.324;18.792;2023-07-31T01:07:24;6.47;;;4.97;;
54143;SDS011;40050;47.324;18.792;2023-07-31T01:09:09;6.11;;;5.16;;
54143;SDS011;40050;47.324;18.792;2023-07-31T01:11:14;9.08;;;5.36;;
54143;SDS011;40050;47.324;18.792;2023-07-31T01:13:15;7.64;;;5.46;;
54143;SDS011;40050;47.324;18.792;2023-07-31T01:15:32;6.55;;;5.16;;
54143;SDS011;40050;47.324;18.792;2023-07-31T01:17:32;6.20;;;5.07;;
54143;SDS011;40050;47.324;18.792;2023-07-31T01:19:33;6.56;;;5.46;;
54143;SDS011;40050;47.324;18.792;2023-07-31T01:26:21;8.45;;;5.65;;
54143;SDS011;40050;47.324;18.792;2023-07-31T01:28:19;7.10;;;5.26;;
54143;SDS011;40050;47.324;18.792;2023-07-31T01:30:25;6.55;;;5.55;;
54143;SDS011;40050;47.324;18.792;2023-07-31T01:32:27;8.53;;;5.36;;
54143;SDS011;40050;47.324;18.792;2023-07-31T01:34:29;8.25;;;5.45;;
54143;SDS011;40050;47.324;18.792;2023-07-31T01:36:30;6.37;;;5.35;;
54143;SDS011;40050;47.324;18.792;2023-07-31T01:38:31;6.73;;;5.16;;
54143;SDS011;40050;47.324;18.792;2023-07-31T01:40:32;6.55;;;5.55;;
54143;SDS011;40050;47.324;18.792;2023-07-31T01:42:32;6.47;;;5.07;;
54143;SDS011;40050;47.324;18.792;2023-07-31T01:44:34;7.73;;;5.75;;
54143;SDS011;40050;47.324;18.792;2023-07-31T01:46:34;7.99;;;5.45;;
54143;SDS011;40050;47.324;18.792;2023-07-31T01:48:35;8.17;;;5.36;;
54143;SDS011;40050;47.324;18.792;2023-07-31T01:50:36;8.09;;;5.65;;
54143;SDS011;40050;47.324;18.792;2023-07-31T01:52:38;5.88;;;4.98;;
54143;SDS011;40050;47.324;18.792;2023-07-31T01:54:38;5.28;;;4.60;;
54143;SDS011;40050;47.324;18.792;2023-07-31T01:56:39;6.28;;;4.99;;
54143;SDS011;40050;47.324;18.792;2023-07-31T01:58:40;8.27;;;5.09;;
54143;SDS011;40050;47.324;18.792;2023-07-31T02:00:42;6.45;;;4.99;;
54143;SDS011;40050;47.324;18.792;2023-07-31T02:02:42;6.99;;;5.18;;
54143;SDS011;40050;47.324;18.792;2023-07-31T02:04:43;6.71;;;5.08;;
54143;SDS011;40050;47.324;18.792;2023-07-31T02:06:44;7.25;;;5.28;;
54143;SDS011;40050;47.324;18.792;2023-07-31T02:08:45;7.88;;;5.57;;
54143;SDS011;40050;47.324;18.792;2023-07-31T02:10:46;6.70;;;5.08;;
54143;SDS011;40050;47.324;18.792;2023-07-31T02:12:47;7.33;;;5.37;;
54143;SDS011;40050;47.324;18.792;2023-07-31T02:14:48;8.76;;;5.56;;
54143;SDS011;40050;47.324;18.792;2023-07-31T02:16:49;7.67;;;5.85;;
54143;SDS011;40050;47.324;18.792;2023-07-31T02:18:50;6.47;;;5.75;;
54143;SDS011;40050;47.324;18.792;2023-07-31T02:20:51;7.35;;;5.84;;
54143;SDS011;40050;47.324;18.792;2023-07-31T02:22:52;7.43;;;5.35;;
54143;SDS011;40050;47.324;18.792;2023-07-31T02:24:53;9.06;;;5.55;;
54143;SDS011;40050;47.324;18.792;2023-07-31T02:26:54;9.47;;;5.83;;
54143;SDS011;40050;47.324;18.792;2023-07-31T02:28:55;7.50;;;5.93;;
54143;SDS011;40050;47.324;18.792;2023-07-31T02:30:55;7.67;;;6.12;;
54143;SDS011;40050;47.324;18.792;2023-07-31T02:32:56;6.49;;;5.63;;
54143;SDS011;40050;47.324;18.792;2023-07-31T02:34:57;8.17;;;6.11;;
54143;SDS011;40050;47.324;18.792;2023-07-31T02:36:58;6.92;;;5.82;;
54143;SDS011;40050;47.324;18.792;2023-07-31T02:38:59;6.91;;;5.91;;
54143;SDS011;40050;47.324;18.792;2023-07-31T02:41:00;8.14;;;5.52;;
54143;SDS011;40050;47.324;18.792;2023-07-31T02:43:01;5.74;;;4.93;;
54143;SDS011;40050;47.324;18.792;2023-07-31T02:45:02;6.35;;;5.03;;
54143;SDS011;40050;47.324;18.792;2023-07-31T02:47:03;6.34;;;5.32;;
54143;SDS011;40050;47.324;18.792;2023-07-31T02:49:03;6.17;;;5.32;;
54143;SDS011;40050;47.324;18.792;2023-07-31T02:51:04;7.06;;;4.93;;
54143;SDS011;40050;47.324;18.792;2023-07-31T02:53:05;6.62;;;4.16;;
54143;SDS011;40050;47.324;18.792;2023-07-31T02:55:06;6.90;;;4.16;;
54143;SDS011;40050;47.324;18.792;2023-07-31T02:57:07;4.96;;;4.17;;
54143;SDS011;40050;47.324;18.792;2023-07-31T02:59:08;4.54;;;4.08;;
54143;SDS011;40050;47.324;18.792;2023-07-31T03:01:13;5.62;;;3.79;;
54143;SDS011;40050;47.324;18.792;2023-07-31T03:03:14;4.83;;;3.50;;
54143;SDS011;40050;47.324;18.792;2023-07-31T03:05:15;3.94;;;2.92;;
54143;SDS011;40050;47.324;18.792;2023-07-31T03:07:16;3.67;;;2.43;;
54143;SDS011;40050;47.324;18.792;2023-07-31T03:09:17;3.49;;;2.33;;
54143;SDS011;40050;47.324;18.792;2023-07-31T03:11:18;2.86;;;2.24;;
54143;SDS011;40050;47.324;18.792;2023-07-31T03:13:18;3.40;;;2.53;;
54143;SDS011;40050;47.324;18.792;2023-07-31T03:15:19;3.76;;;2.72;;
54143;SDS011;40050;47.324;18.792;2023-07-31T03:17:20;4.21;;;2.53;;
54143;SDS011;40050;47.324;18.792;2023-07-31T03:19:21;3.49;;;2.43;;
54143;SDS011;40050;47.324;18.792;2023-07-31T03:21:22;3.31;;;2.24;;
54143;SDS011;40050;47.324;18.792;2023-07-31T03:23:23;4.03;;;2.43;;
54143;SDS011;40050;47.324;18.792;2023-07-31T03:25:24;3.85;;;2.04;;
54143;SDS011;40050;47.324;18.792;2023-07-31T03:27:25;3.67;;;2.43;;
54143;SDS011;40050;47.324;18.792;2023-07-31T03:29:26;3.77;;;2.34;;
54143;SDS011;40050;47.324;18.792;2023-07-31T03:31:27;3.69;;;2.24;;
54143;SDS011;40050;47.324;18.792;2023-07-31T03:33:28;5.95;;;2.63;;
54143;SDS011;40050;47.324;18.792;2023-07-31T03:35:29;3.25;;;2.15;;
54143;SDS011;40050;47.324;18.792;2023-07-31T03:37:30;2.71;;;2.34;;
54143;SDS011;40050;47.324;18.792;2023-07-31T03:39:31;2.89;;;2.44;;
54143;SDS011;40050;47.324;18.792;2023-07-31T03:41:31;5.32;;;2.54;;
54143;SDS011;40050;47.324;18.792;2023-07-31T03:43:32;4.86;;;2.54;;
54143;SDS011;40050;47.324;18.792;2023-07-31T03:45:33;6.21;;;2.63;;
54143;SDS011;40050;47.324;18.792;2023-07-31T03:47:35;3.78;;;2.24;;
54143;SDS011;40050;47.324;18.792;2023-07-31T03:49:36;3.24;;;2.53;;
54143;SDS011;40050;47.324;18.792;2023-07-31T03:51:37;3.24;;;2.34;;
54143;SDS011;40050;47.324;18.792;2023-07-31T03:53:37;3.33;;;2.34;;
54143;SDS011;40050;47.324;18.792;2023-07-31T03:55:39;2.43;;;2.05;;
54143;SDS011;40050;47.324;18.792;2023-07-31T03:57:39;3.06;;;2.34;;
54143;SDS011;40050;47.324;18.792;2023-07-31T03:59:41;3.87;;;2.05;;
54143;SDS011;40050;47.324;18.792;2023-07-31T04:01:41;3.24;;;2.05;;
54143;SDS011;40050;47.324;18.792;2023-07-31T04:03:42;2.52;;;1.95;;
54143;SDS011;40050;47.324;18.792;2023-07-31T04:05:44;3.15;;;2.14;;
54143;SDS011;40050;47.324;18.792;2023-07-31T04:07:44;2.97;;;2.14;;
54143;SDS011;40050;47.324;18.792;2023-07-31T04:09:45;2.52;;;2.14;;
54143;SDS011;40050;47.324;18.792;2023-07-31T04:11:46;2.07;;;1.85;;
54143;SDS011;40050;47.324;18.792;2023-07-31T04:13:47;3.89;;;2.05;;
54143;SDS011;40050;47.324;18.792;2023-07-31T04:15:50;2.80;;;2.15;;
54143;SDS011;40050;47.324;18.792;2023-07-31T04:17:50;2.26;;;1.85;;
54143;SDS011;40050;47.324;18.792;2023-07-31T04:19:51;5.88;;;2.15;;
54143;SDS011;40050;47.324;18.792;2023-07-31T04:21:52;4.80;;;2.05;;
54143;SDS011;40050;47.324;18.792;2023-07-31T04:23:53;5.34;;;2.25;;
54143;SDS011;40050;47.324;18.792;2023-07-31T04:25:54;3.91;;;1.86;;
54143;SDS011;40050;47.324;18.792;2023-07-31T04:27:55;2.54;;;1.86;;
54143;SDS011;40050;47.324;18.792;2023-07-31T04:29:56;3.00;;;2.06;;
54143;SDS011;40050;47.324;18.792;2023-07-31T04:31:56;2.91;;;1.86;;
54143;SDS011;40050;47.324;18.792;2023-07-31T04:33:57;3.65;;;1.96;;
54143;SDS011;40050;47.324;18.792;2023-07-31T04:35:59;3.38;;;1.86;;
54143;SDS011;40050;47.324;18.792;2023-07-31T04:37:59;3.11;;;1.96;;
54143;SDS011;40050;47.324;18.792;2023-07-31T04:40:00;5.95;;;1.96;;
54143;SDS011;40050;47.324;18.792;2023-07-31T04:42:01;2.11;;;1.67;;
54143;SDS011;40050;47.324;18.792;2023-07-31T04:44:02;4.12;;;1.96;;
54143;SDS011;40050;47.324;18.792;2023-07-31T04:46:03;2.29;;;1.86;;
54143;SDS011;40050;47.324;18.792;2023-07-31T04:48:04;3.21;;;1.77;;
54143;SDS011;40050;47.324;18.792;2023-07-31T04:50:05;3.04;;;1.67;;
54143;SDS011;40050;47.324;18.792;2023-07-31T04:52:06;2.58;;;1.77;;
54143;SDS011;40050;47.324;18.792;2023-07-31T04:54:07;4.45;;;1.87;;
54143;SDS011;40050;47.324;18.792;2023-07-31T04:56:08;3.05;;;1.67;;
54143;SDS011;40050;47.324;18.792;2023-07-31T04:58:09;3.61;;;1.57;;
54143;SDS011;40050;47.324;18.792;2023-07-31T05:00:10;4.08;;;1.77;;
54143;SDS011;40050;47.324;18.792;2023-07-31T05:02:11;4.08;;;1.77;;
54143;SDS011;40050;47.324;18.792;2023-07-31T05:04:14;2.23;;;1.68;;
54143;SDS011;40050;47.324;18.792;2023-07-31T05:06:14;2.50;;;1.77;;
54143;SDS011;40050;47.324;18.792;2023-07-31T05:08:16;3.15;;;1.87;;
54143;SDS011;40050;47.324;18.792;2023-07-31T05:10:16;4.30;;;1.58;;
54143;SDS011;40050;47.324;18.792;2023-07-31T05:12:17;3.36;;;1.87;;
54143;SDS011;40050;47.324;18.792;2023-07-31T05:14:18;2.43;;;1.58;;
54143;SDS011;40050;47.324;18.792;2023-07-31T05:16:19;2.43;;;1.68;;
54143;SDS011;40050;47.324;18.792;2023-07-31T05:18:20;2.34;;;1.48;;
54143;SDS011;40050;47.324;18.792;2023-07-31T05:20:21;2.81;;;1.78;;
54143;SDS011;40050;47.324;18.792;2023-07-31T05:22:22;2.07;;;1.48;;
54143;SDS011;40050;47.324;18.792;2023-07-31T05:24:22;2.17;;;1.49;;
54143;SDS011;40050;47.324;18.792;2023-07-31T05:26:23;2.83;;;1.68;;
54143;SDS011;40050;47.324;18.792;2023-07-31T05:28:24;3.21;;;1.58;;
54143;SDS011;40050;47.324;18.792;2023-07-31T05:30:25;2.27;;;1.78;;
54143;SDS011;40050;47.324;18.792;2023-07-31T05:32:26;3.31;;;1.58;;
54143;SDS011;40050;47.324;18.792;2023-07-31T05:34:27;2.08;;;1.59;;
54143;SDS011;40050;47.324;18.792;2023-07-31T05:36:28;5.30;;;1.88;;
54143;SDS011;40050;47.324;18.792;2023-07-31T05:38:29;2.84;;;1.88;;
54143;SDS011;40050;47.324;18.792;2023-07-31T05:40:32;3.98;;;1.59;;
54143;SDS011;40050;47.324;18.792;2023-07-31T05:42:31;2.76;;;1.59;;
54143;SDS011;40050;47.324;18.792;2023-07-31T05:44:32;8.02;;;1.69;;
54143;SDS011;40050;47.324;18.792;2023-07-31T05:46:33;1.62;;;1.39;;
54143;SDS011;40050;47.324;18.792;2023-07-31T05:48:34;3.26;;;1.39;;
54143;SDS011;40050;47.324;18.792;2023-07-31T05:50:35;3.27;;;1.59;;
54143;SDS011;40050;47.324;18.792;2023-07-31T05:52:36;3.54;;;1.69;;
54143;SDS011;40050;47.324;18.792;2023-07-31T05:54:37;3.75;;;1.79;;
54143;SDS011;40050;47.324;18.792;2023-07-31T05:56:38;4.42;;;1.69;;
54143;SDS011;40050;47.324;18.792;2023-07-31T05:58:39;2.31;;;1.59;;
54143;SDS011;40050;47.324;18.792;2023-07-31T06:00:40;3.56;;;1.59;;
54143;SDS011;40050;47.324;18.792;2023-07-31T06:02:41;2.79;;;1.39;;
54143;SDS011;40050;47.324;18.792;2023-07-31T06:04:42;2.31;;;1.39;;
54143;SDS011;40050;47.324;18.792;2023-07-31T06:06:43;2.32;;;1.19;;
54143;SDS011;40050;47.324;18.792;2023-07-31T06:08:44;3.79;;;1.20;;
54143;SDS011;40050;47.324;18.792;2023-07-31T06:10:45;2.63;;;1.40;;
54143;SDS011;40050;47.324;18.792;2023-07-31T06:12:46;2.73;;;1.20;;
54143;SDS011;40050;47.324;18.792;2023-07-31T06:14:47;2.14;;;1.30;;
54143;SDS011;40050;47.324;18.792;2023-07-31T06:16:48;4.88;;;1.40;;
54143;SDS011;40050;47.324;18.792;2023-07-31T06:18:49;3.13;;;1.40;;
54143;SDS011;40050;47.324;18.792;2023-07-31T06:20:50;1.76;;;1.00;;
54143;SDS011;40050;47.324;18.792;2023-07-31T06:22:50;2.15;;;1.20;;
54143;SDS011;40050;47.324;18.792;2023-07-31T06:24:51;3.52;;;1.20;;
54143;SDS011;40050;47.324;18.792;2023-07-31T06:26:52;2.54;;;1.40;;
54143;SDS011;40050;47.324;18.792;2023-07-31T06:28:58;2.65;;;1.20;;
54143;SDS011;40050;47.324;18.792;2023-07-31T06:30:59;2.85;;;1.20;;
54143;SDS011;40050;47.324;18.792;2023-07-31T06:33:00;2.94;;;1.30;;
54143;SDS011;40050;47.324;18.792;2023-07-31T06:35:01;1.96;;;1.20;;
54143;SDS011;40050;47.324;18.792;2023-07-31T06:37:02;2.75;;;1.20;;
54143;SDS011;40050;47.324;18.792;2023-07-31T06:39:03;2.75;;;1.20;;
54143;SDS011;40050;47.324;18.792;2023-07-31T06:41:04;4.24;;;1.50;;
54143;SDS011;40050;47.324;18.792;2023-07-31T06:43:08;3.55;;;1.20;;
54143;SDS011;40050;47.324;18.792;2023-07-31T06:45:09;2.46;;;1.30;;
54143;SDS011;40050;47.324;18.792;2023-07-31T06:47:10;3.35;;;1.30;;
54143;SDS011;40050;47.324;18.792;2023-07-31T06:49:10;3.55;;;1.30;;
54143;SDS011;40050;47.324;18.792;2023-07-31T06:51:11;2.56;;;1.30;;
54143;SDS011;40050;47.324;18.792;2023-07-31T06:53:12;4.24;;;1.40;;
54143;SDS011;40050;47.324;18.792;2023-07-31T06:55:17;2.96;;;1.50;;
54143;SDS011;40050;47.324;18.792;2023-07-31T06:57:14;6.02;;;1.60;;
54143;SDS011;40050;47.324;18.792;2023-07-31T06:59:15;3.75;;;1.20;;
54143;SDS011;40050;47.324;18.792;2023-07-31T07:01:16;3.36;;;1.50;;
54143;SDS011;40050;47.324;18.792;2023-07-31T07:03:20;3.16;;;1.40;;
54143;SDS011;40050;47.324;18.792;2023-07-31T07:05:18;2.27;;;1.10;;
54143;SDS011;40050;47.324;18.792;2023-07-31T07:07:19;3.46;;;1.40;;
54143;SDS011;40050;47.324;18.792;2023-07-31T07:09:20;3.06;;;1.40;;
54143;SDS011;40050;47.324;18.792;2023-07-31T07:11:21;4.75;;;1.30;;
54143;SDS011;40050;47.324;18.792;2023-07-31T07:13:22;4.06;;;1.60;;
54143;SDS011;40050;47.324;18.792;2023-07-31T07:15:22;4.96;;;1.40;;
54143;SDS011;40050;47.324;18.792;2023-07-31T07:17:24;2.58;;;1.10;;
54143;SDS011;40050;47.324;18.792;2023-07-31T07:19:24;2.97;;;1.10;;
54143;SDS011;40050;47.324;18.792;2023-07-31T07:21:25;2.08;;;1.10;;
54143;SDS011;40050;47.324;18.792;2023-07-31T07:23:26;3.38;;;1.20;;
54143;SDS011;40050;47.324;18.792;2023-07-31T07:25:27;3.08;;;1.10;;
54143;SDS011;40050;47.324;18.792;2023-07-31T07:27:28;1.69;;;1.10;;
54143;SDS011;40050;47.324;18.792;2023-07-31T07:29:29;2.58;;;1.20;;
54143;SDS011;40050;47.324;18.792;2023-07-31T07:31:30;3.97;;;1.30;;
54143;SDS011;40050;47.324;18.792;2023-07-31T07:33:31;2.58;;;1.30;;
54143;SDS011;40050;47.324;18.792;2023-07-31T07:35:35;4.28;;;1.30;;
54143;SDS011;40050;47.324;18.792;2023-07-31T07:37:33;3.18;;;1.10;;
54143;SDS011;40050;47.324;18.792;2023-07-31T07:39:34;3.68;;;1.50;;
54143;SDS011;40050;47.324;18.792;2023-07-31T07:41:34;3.48;;;1.30;;
54143;SDS011;40050;47.324;18.792;2023-07-31T07:43:35;2.59;;;1.10;;
54143;SDS011;40050;47.324;18.792;2023-07-31T07:45:37;4.47;;;1.50;;
54143;SDS011;40050;47.324;18.792;2023-07-31T07:47:38;3.48;;;1.20;;
54143;SDS011;40050;47.324;18.792;2023-07-31T07:49:39;2.49;;;1.10;;
54143;SDS011;40050;47.324;18.792;2023-07-31T07:51:39;2.89;;;1.30;;
54143;SDS011;40050;47.324;18.792;2023-07-31T07:53:40;3.19;;;1.30;;
54143;SDS011;40050;47.324;18.792;2023-07-31T07:55:41;3.09;;;1.40;;
54143;SDS011;40050;47.324;18.792;2023-07-31T07:57:42;2.59;;;1.00;;
54143;SDS011;40050;47.324;18.792;2023-07-31T07:59:43;4.68;;;1.20;;
54143;SDS011;40050;47.324;18.792;2023-07-31T08:01:44;2.09;;;1.00;;
54143;SDS011;40050;47.324;18.792;2023-07-31T08:03:45;2.59;;;1.00;;
54143;SDS011;40050;47.324;18.792;2023-07-31T08:05:46;1.99;;;1.20;;
54143;SDS011;40050;47.324;18.792;2023-07-31T08:07:47;2.29;;;1.20;;
54143;SDS011;40050;47.324;18.792;2023-07-31T08:09:48;2.79;;;1.20;;
54143;SDS011;40050;47.324;18.792;2023-07-31T08:11:48;2.29;;;0.90;;
54143;SDS011;40050;47.324;18.792;2023-07-31T08:13:49;1.89;;;0.90;;
54143;SDS011;40050;47.324;18.792;2023-07-31T08:15:50;2.99;;;1.00;;
54143;SDS011;40050;47.324;18.792;2023-07-31T08:17:51;2.19;;;1.10;;
54143;SDS011;40050;47.324;18.792;2023-07-31T08:19:52;2.29;;;1.30;;
54143;SDS011;40050;47.324;18.792;2023-07-31T08:21:54;2.69;;;1.00;;
54143;SDS011;40050;47.324;18.792;2023-07-31T08:23:55;1.90;;;1.00;;
54143;SDS011;40050;47.324;18.792;2023-07-31T08:25:56;2.19;;;1.00;;
54143;SDS011;40050;47.324;18.792;2023-07-31T08:27:57;3.09;;;0.90;;
54143;SDS011;40050;47.324;18.792;2023-07-31T08:29:58;2.10;;;1.00;;
54143;SDS011;40050;47.324;18.792;2023-07-31T08:31:59;2.89;;;1.00;;
54143;SDS011;40050;47.324;18.792;2023-07-31T08:34:00;2.20;;;1.00;;
54143;SDS011;40050;47.324;18.792;2023-07-31T08:36:00;2.99;;;1.00;;
54143;SDS011;40050;47.324;18.792;2023-07-31T08:38:01;3.59;;;0.90;;
54143;SDS011;40050;47.324;18.792;2023-07-31T08:40:03;3.49;;;1.10;;
54143;SDS011;40050;47.324;18.792;2023-07-31T08:42:08;3.39;;;1.20;;
54143;SDS011;40050;47.324;18.792;2023-07-31T08:44:10;2.69;;;0.90;;
54143;SDS011;40050;47.324;18.792;2023-07-31T08:46:12;2.00;;;0.90;;
54143;SDS011;40050;47.324;18.792;2023-07-31T08:48:15;2.30;;;1.00;;
54143;SDS011;40050;47.324;18.792;2023-07-31T08:50:18;3.59;;;1.20;;
54143;SDS011;40050;47.324;18.792;2023-07-31T08:52:20;2.40;;;0.80;;
54143;SDS011;40050;47.324;18.792;2023-07-31T08:54:21;4.29;;;1.10;;
54143;SDS011;40050;47.324;18.792;2023-07-31T08:56:24;3.59;;;1.30;;
54143;SDS011;40050;47.324;18.792;2023-07-31T08:58:25;3.59;;;1.00;;
54143;SDS011;40050;47.324;18.792;2023-07-31T09:00:26;1.60;;;0.80;;
54143;SDS011;40050;47.324;18.792;2023-07-31T09:02:38;2.30;;;1.00;;
54143;SDS011;40050;47.324;18.792;2023-07-31T09:04:31;2.90;;;0.80;;
54143;SDS011;40050;47.324;18.792;2023-07-31T09:06:33;5.39;;;1.10;;
54143;SDS011;40050;47.324;18.792;2023-07-31T09:08:35;2.70;;;0.80;;
54143;SDS011;40050;47.324;18.792;2023-07-31T09:10:40;4.59;;;1.30;;
54143;SDS011;40050;47.324;18.792;2023-07-31T09:12:38;3.30;;;1.10;;
54143;SDS011;40050;47.324;18.792;2023-07-31T09:14:39;1.50;;;0.70;;
54143;SDS011;40050;47.324;18.792;2023-07-31T09:16:53;2.30;;;1.00;;
54143;SDS011;40050;47.324;18.792;2023-07-31T09:19:02;3.00;;;1.00;;
54143;SDS011;40050;47.324;18.792;2023-07-31T09:20:46;2.90;;;1.00;;
54143;SDS011;40050;47.324;18.792;2023-07-31T09:22:48;2.50;;;1.00;;
54143;SDS011;40050;47.324;18.792;2023-07-31T09:25:03;3.50;;;0.90;;
54143;SDS011;40050;47.324;18.792;2023-07-31T09:27:03;2.60;;;1.00;;
54143;SDS011;40050;47.324;18.792;2023-07-31T09:29:04;2.10;;;0.90;;
54143;SDS011;40050;47.324;18.792;2023-07-31T09:31:18;2.70;;;0.70;;
54143;SDS011;40050;47.324;18.792;2023-07-31T09:33:19;1.70;;;0.70;;
54143;SDS011;40050;47.324;18.792;2023-07-31T09:35:21;4.70;;;0.90;;
54143;SDS011;40050;47.324;18.792;2023-07-31T09:37:21;3.20;;;0.90;;
54143;SDS011;40050;47.324;18.792;2023-07-31T09:39:22;3.50;;;1.20;;
54143;SDS011;40050;47.324;18.792;2023-07-31T09:41:23;4.20;;;0.90;;
54143;SDS011;40050;47.324;18.792;2023-07-31T09:43:25;2.90;;;0.90;;
54143;SDS011;40050;47.324;18.792;2023-07-31T09:45:38;3.20;;;1.20;;
54143;SDS011;40050;47.324;18.792;2023-07-31T09:47:50;3.10;;;1.00;;
54143;SDS011;40050;47.324;18.792;2023-07-31T09:49:51;2.30;;;0.90;;
54143;SDS011;40050;47.324;18.792;2023-07-31T09:52:01;3.40;;;0.80;;
54143;SDS011;40050;47.324;18.792;2023-07-31T09:54:02;3.80;;;1.10;;
54143;SDS011;40050;47.324;18.792;2023-07-31T09:56:03;3.10;;;0.60;;
54143;SDS011;40050;47.324;18.792;2023-07-31T09:58:05;4.00;;;0.90;;
54143;SDS011;40050;47.324;18.792;2023-07-31T10:00:06;3.40;;;1.00;;
54143;SDS011;40050;47.324;18.792;2023-07-31T10:02:08;1.80;;;0.70;;
54143;SDS011;40050;47.324;18.792;2023-07-31T10:04:09;2.70;;;0.80;;
54143;SDS011;40050;47.324;18.792;2023-07-31T10:06:24;2.80;;;0.90;;
54143;SDS011;40050;47.324;18.792;2023-07-31T10:08:28;4.00;;;1.00;;
54143;SDS011;40050;47.324;18.792;2023-07-31T10:10:28;3.60;;;0.90;;
54143;SDS011;40050;47.324;18.792;2023-07-31T10:12:31;1.30;;;0.70;;
54143;SDS011;40050;47.324;18.792;2023-07-31T10:14:32;2.10;;;0.80;;
54143;SDS011;40050;47.324;18.792;2023-07-31T10:16:34;3.20;;;0.90;;
54143;SDS011;40050;47.324;18.792;2023-07-31T10:18:37;2.70;;;0.90;;
54143;SDS011;40050;47.324;18.792;2023-07-31T10:20:38;2.50;;;0.80;;
54143;SDS011;40050;47.324;18.792;2023-07-31T10:22:39;2.70;;;0.90;;
54143;SDS011;40050;47.324;18.792;2023-07-31T10:24:41;2.70;;;0.90;;
54143;SDS011;40050;47.324;18.792;2023-07-31T10:26:42;2.00;;;0.70;;
54143;SDS011;40050;47.324;18.792;2023-07-31T10:28:43;2.30;;;0.90;;
54143;SDS011;40050;47.324;18.792;2023-07-31T10:30:48;2.70;;;0.80;;
54143;SDS011;40050;47.324;18.792;2023-07-31T10:32:50;2.40;;;0.90;;
54143;SDS011;40050;47.324;18.792;2023-07-31T10:34:51;2.20;;;0.90;;
54143;SDS011;40050;47.324;18.792;2023-07-31T10:37:18;2.00;;;0.80;;
54143;SDS011;40050;47.324;18.792;2023-07-31T10:38:55;1.60;;;0.70;;
54143;SDS011;40050;47.324;18.792;2023-07-31T10:41:07;2.70;;;1.00;;
54143;SDS011;40050;47.324;18.792;2023-07-31T10:43:25;2.10;;;0.80;;
54143;SDS011;40050;47.324;18.792;2023-07-31T10:45:27;2.40;;;0.80;;
54143;SDS011;40050;47.324;18.792;2023-07-31T10:47:18;1.20;;;0.60;;
54143;SDS011;40050;47.324;18.792;2023-07-31T10:49:28;1.80;;;0.60;;
54143;SDS011;40050;47.324;18.792;2023-07-31T10:51:32;6.19;;;0.80;;
54143;SDS011;40050;47.324;18.792;2023-07-31T10:53:31;2.50;;;0.70;;
54143;SDS011;40050;47.324;18.792;2023-07-31T10:55:46;3.00;;;0.80;;
54143;SDS011;40050;47.324;18.792;2023-07-31T10:57:54;3.50;;;0.80;;
54143;SDS011;40050;47.324;18.792;2023-07-31T11:00:17;2.60;;;1.00;;
54143;SDS011;40050;47.324;18.792;2023-07-31T11:02:23;2.20;;;0.80;;
54143;SDS011;40050;47.324;18.792;2023-07-31T11:04:22;2.90;;;0.80;;
54143;SDS011;40050;47.324;18.792;2023-07-31T11:06:34;3.00;;;0.90;;
54143;SDS011;40050;47.324;18.792;2023-07-31T11:08:41;1.70;;;0.70;;
54143;SDS011;40050;47.324;18.792;2023-07-31T11:10:42;5.10;;;0.90;;
54143;SDS011;40050;47.324;18.792;2023-07-31T11:12:43;3.30;;;1.10;;
54143;SDS011;40050;47.324;18.792;2023-07-31T11:14:44;3.00;;;0.90;;
54143;SDS011;40050;47.324;18.792;2023-07-31T11:16:45;3.50;;;0.90;;
54143;SDS011;40050;47.324;18.792;2023-07-31T11:18:46;2.30;;;0.90;;
54143;SDS011;40050;47.324;18.792;2023-07-31T11:20:47;3.20;;;0.80;;
54143;SDS011;40050;47.324;18.792;2023-07-31T11:22:48;2.20;;;0.80;;
54143;SDS011;40050;47.324;18.792;2023-07-31T11:24:49;1.90;;;0.90;;
54143;SDS011;40050;47.324;18.792;2023-07-31T11:26:53;1.90;;;0.90;;
54143;SDS011;40050;47.324;18.792;2023-07-31T11:28:51;1.90;;;0.80;;
54143;SDS011;40050;47.324;18.792;2023-07-31T11:30:52;4.60;;;1.00;;
54143;SDS011;40050;47.324;18.792;2023-07-31T11:32:55;1.80;;;0.80;;
54143;SDS011;40050;47.324;18.792;2023-07-31T11:34:55;1.70;;;0.80;;
54143;SDS011;40050;47.324;18.792;2023-07-31T11:36:55;4.00;;;0.80;;
54143;SDS011;40050;47.324;18.792;2023-07-31T11:39:07;2.50;;;0.80;;
54143;SDS011;40050;47.324;18.792;2023-07-31T11:41:02;2.10;;;0.70;;
54143;SDS011;40050;47.324;18.792;2023-07-31T11:43:03;1.80;;;0.80;;
54143;SDS011;40050;47.324;18.792;2023-07-31T11:45:11;3.50;;;0.70;;
54143;SDS011;40050;47.324;18.792;2023-07-31T11:47:13;2.60;;;0.80;;
54143;SDS011;40050;47.324;18.792;2023-07-31T11:49:14;2.80;;;0.80;;
54143;SDS011;40050;47.324;18.792;2023-07-31T11:51:15;2.20;;;0.60;;
54143;SDS011;40050;47.324;18.792;2023-07-31T11:53:18;3.60;;;0.90;;
54143;SDS011;40050;47.324;18.792;2023-07-31T11:55:18;1.60;;;0.80;;
54143;SDS011;40050;47.324;18.792;2023-07-31T11:57:19;2.80;;;0.90;;
54143;SDS011;40050;47.324;18.792;2023-07-31T11:59:23;1.80;;;0.80;;
54143;SDS011;40050;47.324;18.792;2023-07-31T12:01:24;2.00;;;0.90;;
54143;SDS011;40050;47.324;18.792;2023-07-31T12:03:25;3.20;;;0.90;;
54143;SDS011;40050;47.324;18.792;2023-07-31T12:05:26;1.80;;;0.80;;
54143;SDS011;40050;47.324;18.792;2023-07-31T12:07:27;1.30;;;0.60;;